Time;durP1;ratioP1;P1;durP2;ratioP2;P2;SDS_P1;SDS_P2;PMS_P1;PMS_P2;Temp;Humidity;BMP_temperature;BMP_pressure;BME280_temperature;BME280_humidity;BME280_pressure;Samples;Min_cycle;Max_cycle;Signal;HPM_P1;HPM_P2
2021/09/16 00:01:46;;;;;;;19.50;8.80;;;;;;;21.50;70.32;100526.69;5087919;28;20123;-75
2021/09/16 00:04:13;;;;;;;20.98;9.75;;;;;;;21.60;70.24;100541.59;5086184;28;20058;-74
2021/09/16 00:06:40;;;;;;;21.92;9.40;;;;;;;21.55;70.25;100539.00;5111565;28;20146;-77
2021/09/16 00:09:07;;;;;;;20.65;8.60;;;;;;;21.52;70.25;100537.69;5106926;28;20590;-77
2021/09/16 00:11:34;;;;;;;20.65;9.13;;;;;;;21.55;70.85;100534.16;5092989;28;20065;-70
2021/09/16 00:14:01;;;;;;;26.65;10.98;;;;;;;21.61;70.94;100531.91;5100160;28;20581;-70
2021/09/16 00:16:28;;;;;;;21.98;10.45;;;;;;;21.61;71.61;100527.06;5100817;28;20048;-70
2021/09/16 00:18:55;;;;;;;21.33;9.77;;;;;;;21.59;71.57;100523.72;5100802;28;20545;-69
2021/09/16 00:21:21;;;;;;;22.23;10.23;;;;;;;21.68;71.60;100544.34;5100797;28;20073;-69
2021/09/16 00:23:48;;;;;;;19.70;9.60;;;;;;;21.68;71.41;100541.50;5083168;28;20125;-68
2021/09/16 00:26:15;;;;;;;19.52;10.35;;;;;;;21.64;70.89;100529.19;5107932;28;20050;-67
2021/09/16 00:28:42;;;;;;;24.38;10.80;;;;;;;21.65;70.93;100536.50;5084328;28;20130;-65
2021/09/16 00:31:09;;;;;;;19.67;9.70;;;;;;;21.66;71.30;100537.34;5096178;28;20048;-64
2021/09/16 00:33:36;;;;;;;21.40;9.85;;;;;;;21.65;71.35;100528.00;5099372;28;20106;-65
2021/09/16 00:36:03;;;;;;;19.02;9.40;;;;;;;21.63;71.77;100518.16;5107709;28;20556;-63
2021/09/16 00:38:30;;;;;;;19.38;10.35;;;;;;;21.60;71.45;100514.00;5104949;27;20461;-62
2021/09/16 00:40:57;;;;;;;25.63;11.85;;;;;;;21.68;71.47;100526.47;5096781;28;20054;-63
2021/09/16 00:43:24;;;;;;;18.13;9.48;;;;;;;21.53;71.02;100503.22;5101295;28;20143;-68
2021/09/16 00:45:50;;;;;;;22.02;10.93;;;;;;;21.62;70.81;100516.50;5113659;28;20185;-70
2021/09/16 00:48:17;;;;;;;21.52;10.48;;;;;;;21.65;70.60;100530.00;5108170;28;20096;-75
2021/09/16 00:50:44;;;;;;;20.67;10.80;;;;;;;21.62;70.43;100525.03;5115340;28;20146;-75
2021/09/16 00:53:15;;;;;;;21.77;10.18;;;;;;;21.46;70.36;100497.31;5110170;28;20088;-78
2021/09/16 00:55:45;;;;;;;19.52;9.18;;;;;;;21.49;70.19;100518.50;5110697;28;20135;-77
2021/09/16 00:58:12;;;;;;;;;;;;;;;21.41;70.47;100519.47;5100463;27;20130;-78
2021/09/16 01:00:39;;;;;;;20.70;9.48;;;;;;;21.41;70.13;100528.00;5101485;28;20022;-73
2021/09/16 01:03:06;;;;;;;33.33;9.57;;;;;;;21.31;70.24;100529.25;5103111;28;20052;-71
2021/09/16 01:05:33;;;;;;;23.70;10.90;;;;;;;21.22;70.09;100514.34;5093859;27;20086;-76
2021/09/16 01:07:59;;;;;;;23.92;10.40;;;;;;;21.27;70.49;100522.63;5109011;28;20076;-70
2021/09/16 01:10:26;;;;;;;22.95;10.77;;;;;;;21.25;70.67;100525.81;5102432;28;20123;-72
2021/09/16 01:12:53;;;;;;;23.00;12.43;;;;;;;21.26;71.21;100526.63;5103250;27;20118;-74
2021/09/16 01:15:20;;;;;;;24.85;12.57;;;;;;;21.08;71.26;100499.66;5109535;27;20126;-74
2021/09/16 01:17:47;;;;;;;30.40;14.10;;;;;;;21.27;71.52;100525.47;5111128;28;20126;-73
2021/09/16 01:20:15;;;;;;;31.90;12.75;;;;;;;21.29;72.10;100511.72;5107553;28;20538;-74
2021/09/16 01:22:41;;;;;;;28.08;12.88;;;;;;;21.38;72.36;100529.53;5108579;28;20067;-72
2021/09/16 01:25:09;;;;;;;23.77;12.02;;;;;;;21.39;72.24;100525.50;5101036;28;20074;-71
2021/09/16 01:27:35;;;;;;;22.23;10.43;;;;;;;21.51;72.15;100533.22;5102429;28;20126;-70
2021/09/16 01:30:05;;;;;;;23.55;11.18;;;;;;;21.60;72.24;100519.69;5108184;27;20517;-72
2021/09/16 01:32:32;;;;;;;23.33;10.68;;;;;;;21.69;71.78;100540.28;5084141;28;20043;-69
2021/09/16 01:34:59;;;;;;;20.40;10.48;;;;;;;21.69;71.50;100523.25;5083486;28;20071;-68
2021/09/16 01:37:25;;;;;;;30.33;11.30;;;;;;;21.70;71.44;100539.09;5105142;27;20074;-67
2021/09/16 01:39:52;;;;;;;25.48;11.63;;;;;;;21.57;71.12;100528.09;5111883;27;20145;-70
2021/09/16 01:42:19;;;;;;;27.08;11.77;;;;;;;21.51;70.90;100522.66;5111842;27;20047;-71
2021/09/16 01:44:47;;;;;;;16.63;9.40;;;;;;;21.52;70.57;100527.16;5110628;27;20507;-71
2021/09/16 01:47:16;;;;;;;21.15;10.40;;;;;;;21.16;70.59;100482.50;5100047;27;20503;-65
2021/09/16 01:49:43;;;;;;;22.98;11.20;;;;;;;21.32;70.30;100528.06;5111483;27;20044;-73
2021/09/16 01:52:10;;;;;;;25.13;11.55;;;;;;;21.29;70.39;100526.75;5110512;27;20127;-67
2021/09/16 01:54:37;;;;;;;25.10;10.18;;;;;;;21.23;70.37;100527.34;5111882;28;20578;-67
2021/09/16 01:57:04;;;;;;;24.02;11.10;;;;;;;21.17;70.21;100528.78;5105744;28;20131;-70
2021/09/16 01:59:30;;;;;;;24.20;10.35;;;;;;;21.10;70.15;100528.53;5106567;28;20450;-69
2021/09/16 02:01:57;;;;;;;21.42;9.88;;;;;;;20.82;70.11;100507.31;5108458;28;20067;-71
2021/09/16 02:04:24;;;;;;;20.98;10.45;;;;;;;20.96;70.36;100532.53;5106240;27;20040;-69
2021/09/16 02:06:51;;;;;;;17.27;10.05;;;;;;;20.91;70.42;100526.22;5110030;27;20449;-73
2021/09/16 02:09:18;;;;;;;23.27;10.20;;;;;;;20.87;70.56;100531.78;5111052;28;20075;-72
2021/09/16 02:11:45;;;;;;;24.70;11.63;;;;;;;20.84;70.77;100526.81;5100992;28;20122;-69
2021/09/16 02:14:12;;;;;;;28.45;12.10;;;;;;;20.86;70.54;100535.81;5109176;28;20108;-69
2021/09/16 02:16:39;;;;;;;23.58;11.05;;;;;;;20.86;70.52;100534.97;5098394;28;20118;-70
2021/09/16 02:19:06;;;;;;;30.00;11.40;;;;;;;20.66;70.50;100499.81;5105467;28;20067;-69
2021/09/16 02:21:32;;;;;;;26.85;13.32;;;;;;;20.80;70.88;100523.84;5106653;28;20070;-73
2021/09/16 02:24:00;;;;;;;31.98;14.45;;;;;;;20.80;71.04;100525.84;5096910;28;20068;-71
2021/09/16 02:26:27;;;;;;;35.17;16.10;;;;;;;20.80;71.18;100531.53;5097873;28;20170;-71
2021/09/16 02:28:53;;;;;;;32.45;15.00;;;;;;;20.79;71.41;100529.88;5100364;28;20556;-71
2021/09/16 02:31:20;;;;;;;26.42;13.48;;;;;;;20.79;71.37;100524.19;5084817;28;20071;-78
2021/09/16 02:33:47;;;;;;;28.80;12.57;;;;;;;20.80;71.05;100528.69;5098481;28;20539;-68
2021/09/16 02:36:14;;;;;;;28.98;12.98;;;;;;;20.77;71.10;100521.69;5101362;28;20131;-67
2021/09/16 02:38:41;;;;;;;26.48;12.73;;;;;;;20.77;70.88;100515.19;5110687;28;20068;-67
2021/09/16 02:41:08;;;;;;;34.03;15.15;;;;;;;20.78;71.50;100511.16;5107989;28;20083;-68
2021/09/16 02:43:35;;;;;;;28.17;13.02;;;;;;;20.74;72.13;100499.69;5108870;28;20131;-73
2021/09/16 02:46:02;;;;;;;29.25;14.60;;;;;;;20.82;72.39;100515.00;5097038;28;20139;-68
2021/09/16 02:48:29;;;;;;;31.58;13.73;;;;;;;20.82;72.37;100506.47;5094031;28;20063;-68
2021/09/16 02:50:55;;;;;;;38.80;15.48;;;;;;;20.75;72.10;100500.50;5102401;27;20142;-68
2021/09/16 02:53:23;;;;;;;35.42;14.57;;;;;;;20.70;71.84;100490.22;5116385;27;20059;-64
2021/09/16 02:55:49;;;;;;;29.38;13.73;;;;;;;20.76;72.02;100507.88;5107155;28;20080;-64
2021/09/16 02:58:16;;;;;;;22.05;11.65;;;;;;;20.72;71.79;100495.56;5102928;28;20550;-64
2021/09/16 03:00:43;;;;;;;23.00;11.85;;;;;;;20.66;71.49;100500.63;5098443;28;21054;-65
2021/09/16 03:03:10;;;;;;;27.65;11.73;;;;;;;20.49;71.47;100486.59;5101620;28;20521;-65
2021/09/16 03:05:37;;;;;;;23.73;11.65;;;;;;;20.52;71.39;100505.78;5100110;28;20128;-66
2021/09/16 03:08:04;;;;;;;28.70;12.27;;;;;;;20.47;71.32;100509.63;5082568;28;20131;-67
2021/09/16 03:10:31;;;;;;;27.05;10.95;;;;;;;20.42;71.39;100509.03;5099006;27;20131;-64
2021/09/16 03:12:58;;;;;;;17.70;10.30;;;;;;;20.33;71.54;100507.06;5104761;28;20082;-65
2021/09/16 03:15:25;;;;;;;20.88;10.63;;;;;;;20.41;71.55;100518.69;5101360;28;20063;-64
2021/09/16 03:17:53;;;;;;;23.63;11.10;;;;;;;20.43;71.60;100516.34;5100938;28;20043;-67
2021/09/16 03:20:20;;;;;;;25.70;11.15;;;;;;;20.40;71.61;100506.53;5095214;28;20071;-67
2021/09/16 03:22:47;;;;;;;19.45;11.95;;;;;;;20.46;71.46;100510.81;5103188;28;20040;-65
2021/09/16 03:25:14;;;;;;;26.42;12.52;;;;;;;20.22;71.34;100482.34;5105344;28;20059;-69
2021/09/16 03:27:41;;;;;;;26.35;11.55;;;;;;;20.30;71.47;100513.44;5104587;28;20133;-69
2021/09/16 03:30:14;;;;;;;17.15;10.38;;;;;;;20.18;71.25;100492.72;5103288;28;20052;-68
2021/09/16 03:32:42;;;;;;;20.88;10.50;;;;;;;20.25;71.22;100504.34;5107999;28;20165;-75
2021/09/16 03:35:10;;;;;;;27.02;11.98;;;;;;;20.23;71.01;100507.50;5121481;28;20079;-77
2021/09/16 03:37:36;;;;;;;29.35;12.15;;;;;;;20.13;71.06;100493.75;5101890;28;20040;-69
2021/09/16 03:40:04;;;;;;;20.15;11.75;;;;;;;20.06;71.38;100480.13;5110156;28;20086;-65
2021/09/16 03:42:32;;;;;;;28.73;12.18;;;;;;;20.07;71.55;100498.81;5100694;28;20075;-64
2021/09/16 03:44:59;;;;;;;20.13;12.07;;;;;;;20.12;71.54;100507.09;5095769;28;20136;-64
2021/09/16 03:47:26;;;;;;;23.60;11.32;;;;;;;20.06;71.34;100497.13;5100832;27;20096;-80
2021/09/16 03:49:53;;;;;;;27.92;11.93;;;;;;;20.03;71.57;100492.19;5124984;28;20075;-76
2021/09/16 03:52:20;;;;;;;21.30;11.45;;;;;;;20.10;71.38;100498.13;5083711;28;20104;-76
2021/09/16 03:54:47;;;;;;;23.55;12.02;;;;;;;20.08;70.97;100506.13;5097359;28;20135;-74
2021/09/16 03:57:14;;;;;;;24.42;12.55;;;;;;;20.09;71.36;100512.63;5088698;28;20078;-73
2021/09/16 03:59:41;;;;;;;24.85;12.80;;;;;;;19.91;71.38;100500.59;5103098;28;20134;-72
2021/09/16 04:02:08;;;;;;;29.10;14.02;;;;;;;20.07;71.38;100510.16;5111200;28;20126;-77
2021/09/16 04:04:35;;;;;;;25.35;13.70;;;;;;;20.07;71.55;100515.00;5095499;28;20132;-79
2021/09/16 04:07:02;;;;;;;35.88;15.48;;;;;;;20.06;71.55;100497.13;5098802;28;20136;-75
2021/09/16 04:09:29;;;;;;;44.95;16.80;;;;;;;20.08;71.82;100500.47;5097446;28;20126;-70
2021/09/16 04:11:56;;;;;;;44.63;18.70;;;;;;;19.98;71.84;100483.88;5106172;28;20127;-73
2021/09/16 04:14:23;;;;;;;48.03;18.92;;;;;;;20.12;72.34;100509.94;5086116;28;20051;-72
2021/09/16 04:16:49;;;;;;;29.73;13.73;;;;;;;20.16;72.34;100512.91;5106615;28;20131;-69
2021/09/16 04:19:16;;;;;;;31.73;13.68;;;;;;;20.19;72.45;100511.38;5102508;28;22023;-75
2021/09/16 04:21:43;;;;;;;27.08;12.80;;;;;;;20.19;72.49;100505.72;5107411;28;20122;-73
2021/09/16 04:24:13;;;;;;;25.13;12.85;;;;;;;20.25;72.42;100527.03;5107537;28;20123;-77
2021/09/16 04:26:41;;;;;;;22.42;11.10;;;;;;;20.24;72.48;100519.66;5104589;28;20068;-73
2021/09/16 04:29:08;;;;;;;30.48;13.57;;;;;;;20.28;72.37;100527.16;5110399;28;20079;-75
2021/09/16 04:31:35;;;;;;;37.63;13.95;;;;;;;20.33;72.57;100523.28;5085290;28;20444;-72
2021/09/16 04:34:02;;;;;;;37.95;15.65;;;;;;;20.37;72.46;100532.75;5103540;28;20076;-75
2021/09/16 04:36:28;;;;;;;36.78;14.38;;;;;;;20.44;72.62;100518.81;5102708;28;20043;-79
2021/09/16 04:38:56;;;;;;;30.92;13.25;;;;;;;20.42;72.58;100509.84;5095491;28;20126;-70
2021/09/16 04:41:23;;;;;;;27.40;12.63;;;;;;;20.56;72.53;100516.06;5103747;28;20130;-76
2021/09/16 04:43:50;;;;;;;41.08;11.98;;;;;;;20.68;72.24;100522.97;5097781;28;20131;-70
2021/09/16 04:46:17;;;;;;;34.17;12.25;;;;;;;20.71;72.04;100528.78;5103633;28;20116;-73
2021/09/16 04:48:44;;;;;;;26.52;11.50;;;;;;;20.66;71.70;100526.16;5105847;28;20554;-72
2021/09/16 04:51:10;;;;;;;33.70;11.30;;;;;;;20.11;71.74;100448.75;5107977;28;20572;-73
2021/09/16 04:53:37;;;;;;;27.70;11.07;;;;;;;20.75;71.70;100540.25;5095574;28;20537;-68
2021/09/16 04:56:04;;;;;;;24.42;10.98;;;;;;;20.68;71.41;100520.13;5097592;28;20072;-73
2021/09/16 04:58:31;;;;;;;31.48;12.65;;;;;;;20.76;71.20;100541.94;5099309;28;20154;-65
2021/09/16 05:00:58;;;;;;;35.90;13.40;;;;;;;20.76;71.30;100531.41;5101722;28;20468;-61
2021/09/16 05:03:25;;;;;;;35.40;12.25;;;;;;;20.76;70.96;100522.88;5101864;28;20127;-63
2021/09/16 05:05:51;;;;;;;41.67;13.65;;;;;;;20.75;70.87;100528.91;5096798;28;20122;-61
2021/09/16 05:08:18;;;;;;;47.50;13.20;;;;;;;20.73;71.07;100534.94;5093439;28;20485;-64
2021/09/16 05:10:45;;;;;;;41.70;15.10;;;;;;;20.74;70.84;100533.75;5096679;28;20452;-66
2021/09/16 05:13:12;;;;;;;34.38;16.30;;;;;;;20.66;71.31;100531.00;5111424;28;20452;-64
2021/09/16 05:15:39;;;;;;;44.97;17.30;;;;;;;20.59;71.70;100528.75;5099366;28;20122;-64
2021/09/16 05:18:07;;;;;;;48.25;18.38;;;;;;;20.59;71.83;100526.72;5105806;28;20075;-68
2021/09/16 05:20:34;;;;;;;44.00;17.17;;;;;;;20.62;72.04;100521.53;5107824;28;20079;-65
2021/09/16 05:23:01;;;;;;;35.03;14.45;;;;;;;20.63;71.97;100523.19;5100984;28;20083;-64
2021/09/16 05:25:28;;;;;;;36.35;16.15;;;;;;;20.62;72.12;100530.06;5102074;28;20142;-68
2021/09/16 05:27:56;;;;;;;32.00;14.05;;;;;;;20.61;72.16;100522.72;5110314;28;20459;-78
2021/09/16 05:30:23;;;;;;;39.80;14.73;;;;;;;20.63;72.11;100526.88;5108216;28;20135;-69
2021/09/16 05:32:50;;;;;;;30.58;14.18;;;;;;;20.62;72.05;100525.22;5106182;28;20094;-66
2021/09/16 05:35:17;;;;;;;33.72;15.10;;;;;;;20.68;71.91;100537.16;5105387;28;20462;-74
2021/09/16 05:37:43;;;;;;;33.28;14.45;;;;;;;20.69;71.90;100536.00;5106639;27;20568;-74
2021/09/16 05:40:12;;;;;;;33.97;14.52;;;;;;;20.52;71.85;100492.44;5110116;28;20481;-74
2021/09/16 05:42:39;;;;;;;39.95;15.50;;;;;;;20.73;71.74;100536.94;5106544;28;20123;-74
2021/09/16 05:45:08;;;;;;;35.70;14.73;;;;;;;20.63;71.46;100526.88;5110433;28;20071;-76
2021/09/16 05:47:35;;;;;;;41.85;15.57;;;;;;;20.69;71.38;100541.66;5068944;28;20104;-77
2021/09/16 05:50:03;;;;;;;36.03;15.35;;;;;;;20.66;71.17;100548.03;5105181;27;20087;-75
2021/09/16 05:52:30;;;;;;;30.20;16.02;;;;;;;20.65;71.58;100552.03;5108924;27;20279;-74
2021/09/16 05:54:57;;;;;;;37.72;15.98;;;;;;;20.66;71.46;100548.88;5090792;28;20096;-77
2021/09/16 05:57:24;;;;;;;32.00;15.77;;;;;;;20.64;71.44;100548.38;5105227;28;20047;-71
2021/09/16 05:59:51;;;;;;;42.63;16.75;;;;;;;20.64;72.08;100550.38;5103726;28;20127;-73
2021/09/16 06:02:19;;;;;;;39.85;15.30;;;;;;;20.62;72.05;100553.59;5103338;27;20487;-75
2021/09/16 06:04:46;;;;;;;35.17;14.18;;;;;;;20.56;72.01;100557.81;5111425;28;20071;-74
2021/09/16 06:07:13;;;;;;;36.78;15.40;;;;;;;20.49;72.28;100555.50;5104390;28;20043;-74
2021/09/16 06:09:40;;;;;;;40.97;15.60;;;;;;;20.48;72.37;100564.38;5105890;27;20075;-76
2021/09/16 06:12:08;;;;;;;37.53;15.40;;;;;;;20.43;72.40;100558.88;5103771;28;20570;-75
2021/09/16 06:14:35;;;;;;;34.80;15.07;;;;;;;20.33;72.40;100546.78;5105958;28;20412;-76
2021/09/16 06:17:03;;;;;;;45.75;18.42;;;;;;;20.39;72.52;100572.13;5122247;27;20552;-76
2021/09/16 06:19:29;;;;;;;51.83;17.98;;;;;;;20.46;72.60;100584.56;5107401;27;20544;-75
2021/09/16 06:21:56;;;;;;;49.50;18.08;;;;;;;20.50;72.63;100582.72;5108820;27;20440;-75
2021/09/16 06:24:23;;;;;;;51.40;17.80;;;;;;;20.49;72.52;100589.53;5105479;28;20043;-75
2021/09/16 06:26:50;;;;;;;46.42;17.48;;;;;;;20.52;72.42;100594.56;5107719;28;20040;-73
2021/09/16 06:29:17;;;;;;;51.30;18.10;;;;;;;20.51;72.70;100589.22;5107270;28;20122;-76
2021/09/16 06:31:44;;;;;;;44.67;17.63;;;;;;;20.48;72.91;100593.56;5100845;28;20072;-75
2021/09/16 06:34:11;;;;;;;43.85;17.65;;;;;;;20.50;72.86;100605.41;5079063;28;20047;-78
2021/09/16 06:36:38;;;;;;;42.70;17.23;;;;;;;20.49;72.72;100606.56;5110098;28;20645;-75
2021/09/16 06:39:05;;;;;;;49.88;18.48;;;;;;;20.54;72.86;100614.88;5088522;28;20071;-72
2021/09/16 06:41:32;;;;;;;41.80;16.05;;;;;;;20.59;72.88;100628.88;5105867;28;20131;-74
2021/09/16 06:43:58;;;;;;;47.90;16.08;;;;;;;20.53;73.01;100623.75;5109711;28;20159;-73
2021/09/16 06:46:25;;;;;;;43.25;14.60;;;;;;;20.51;73.10;100626.09;5101505;27;20576;-75
2021/09/16 06:48:53;;;;;;;33.47;13.45;;;;;;;20.45;73.16;100625.47;5104665;28;20562;-72
2021/09/16 06:51:19;;;;;;;37.78;13.85;;;;;;;20.34;73.26;100608.03;5106816;28;20051;-75
2021/09/16 06:53:57;;;;;;;38.10;14.27;;;;;;;20.18;72.78;100584.28;5098077;28;20781;-74
2021/09/16 06:56:24;;;;;;;34.08;13.05;;;;;;;20.35;73.34;100634.38;5100096;28;20071;-75
2021/09/16 06:58:51;;;;;;;36.25;13.95;;;;;;;20.28;73.60;100634.91;5104323;28;20072;-73
2021/09/16 07:01:18;;;;;;;38.90;14.00;;;;;;;20.22;74.00;100641.97;5101764;28;20079;-71
2021/09/16 07:03:47;;;;;;;40.58;12.43;;;;;;;20.19;73.81;100633.31;5095959;28;20040;-71
2021/09/16 07:06:15;;;;;;;33.58;13.80;;;;;;;20.10;74.10;100645.56;5092442;28;20047;-72
2021/09/16 07:08:42;;;;;;;31.95;13.07;;;;;;;20.02;74.30;100643.56;5097650;28;20039;-71
2021/09/16 07:11:09;;;;;;;34.90;13.07;;;;;;;20.04;74.23;100648.94;5111450;28;20043;-71
2021/09/16 07:13:36;;;;;;;36.78;13.05;;;;;;;19.96;74.19;100636.44;5104327;27;20611;-72
2021/09/16 07:16:03;;;;;;;29.00;12.40;;;;;;;20.03;74.46;100650.94;5109060;27;20403;-73
2021/09/16 07:18:34;;;;;;;22.52;11.10;;;;;;;20.04;74.28;100646.91;5112749;28;20204;-72
2021/09/16 07:21:02;;;;;;;21.90;10.57;;;;;;;19.96;74.63;100649.78;5079830;28;20048;-72
2021/09/16 07:23:29;;;;;;;27.30;11.13;;;;;;;20.05;74.19;100656.25;5095133;28;20119;-72
2021/09/16 07:26:03;;;;;;;33.15;11.82;;;;;;;20.12;73.93;100660.19;5092765;28;20070;-72
2021/09/16 07:28:34;;;;;;;32.10;11.57;;;;;;;20.15;73.77;100663.53;5095858;28;20407;-72
2021/09/16 07:31:02;;;;;;;36.33;12.13;;;;;;;20.12;74.00;100665.03;5113408;28;20083;-72
2021/09/16 07:33:29;;;;;;;33.92;12.70;;;;;;;20.02;74.13;100657.75;5101179;28;20051;-73
2021/09/16 07:35:56;;;;;;;32.88;13.10;;;;;;;20.08;74.20;100652.72;5093164;28;20446;-72
2021/09/16 07:38:23;;;;;;;38.15;13.73;;;;;;;20.09;74.10;100643.03;5104814;28;20126;-72
2021/09/16 07:40:50;;;;;;;33.42;13.32;;;;;;;20.10;74.40;100656.88;5104401;28;20048;-72
2021/09/16 07:43:17;;;;;;;22.00;10.15;;;;;;;20.08;74.22;100647.06;5110539;28;20475;-73
2021/09/16 07:45:47;;;;;;;;;;;;;;;20.11;74.07;100652.06;5102333;28;20044;-74
2021/09/16 07:48:14;;;;;;;29.50;11.48;;;;;;;20.03;74.13;100645.25;5092473;28;19924;-73
2021/09/16 07:50:41;;;;;;;22.55;10.50;;;;;;;20.16;74.19;100668.03;5097183;28;20043;-73
2021/09/16 07:53:10;;;;;;;26.85;11.85;;;;;;;20.19;74.15;100653.16;5107451;28;20123;-73
2021/09/16 07:55:37;;;;;;;25.20;12.05;;;;;;;20.40;74.14;100656.03;5087596;28;20036;-73
2021/09/16 07:58:05;;;;;;;20.98;9.40;;;;;;;20.42;73.96;100654.50;5108870;28;20079;-74
2021/09/16 08:00:33;;;;;;;19.33;8.57;;;;;;;20.50;73.63;100656.47;5096597;28;20163;-73
2021/09/16 08:03:00;;;;;;;20.52;7.65;;;;;;;20.46;73.72;100663.97;5106986;28;20071;-73
2021/09/16 08:05:27;;;;;;;16.10;8.40;;;;;;;20.34;73.58;100638.38;5098544;28;20040;-73
2021/09/16 08:07:54;;;;;;;21.67;8.27;;;;;;;20.59;73.13;100656.41;5107600;28;20146;-73
2021/09/16 08:10:21;;;;;;;14.52;6.97;;;;;;;20.69;73.10;100675.03;5091763;28;20287;-73
2021/09/16 08:12:49;;;;;;;21.45;8.52;;;;;;;20.71;73.14;100664.97;5092123;28;20148;-73
2021/09/16 08:15:16;;;;;;;16.65;7.32;;;;;;;20.75;73.31;100671.66;5091629;28;20139;-73
2021/09/16 08:17:43;;;;;;;20.73;8.73;;;;;;;20.72;72.96;100668.69;5092065;28;20051;-73
2021/09/16 08:20:11;;;;;;;21.17;8.20;;;;;;;20.71;73.27;100681.19;5092077;28;20140;-74
2021/09/16 08:22:37;;;;;;;18.10;7.60;;;;;;;20.52;72.99;100639.13;5091589;28;20048;-73
2021/09/16 08:25:08;;;;;;;19.73;8.45;;;;;;;20.76;73.07;100670.47;5095621;28;20479;-73
2021/09/16 08:27:35;;;;;;;22.27;8.23;;;;;;;20.65;72.87;100671.22;5092115;28;20460;-73
2021/09/16 08:30:05;;;;;;;21.55;8.13;;;;;;;20.69;72.96;100673.03;5092482;28;20479;-72
2021/09/16 08:32:32;;;;;;;25.40;9.27;;;;;;;20.52;73.27;100668.31;5091915;28;20560;-72
2021/09/16 08:34:59;;;;;;;27.73;10.40;;;;;;;20.58;73.50;100678.28;5100299;28;20495;-74
2021/09/16 08:37:26;;;;;;;24.15;9.05;;;;;;;20.73;73.81;100678.84;5112286;28;20084;-73
2021/09/16 08:39:53;;;;;;;20.67;8.13;;;;;;;20.81;73.01;100687.25;5101934;28;20131;-73
2021/09/16 08:42:24;;;;;;;21.25;8.13;;;;;;;20.87;73.05;100687.91;5100497;28;20075;-73
2021/09/16 08:44:55;;;;;;;19.75;9.43;;;;;;;20.91;72.58;100688.84;5080644;28;20060;-74
2021/09/16 08:47:24;;;;;;;21.42;10.32;;;;;;;21.05;72.74;100697.09;5109527;28;20053;-75
2021/09/16 08:49:53;;;;;;;19.80;9.63;;;;;;;21.18;72.40;100690.28;5114355;28;20078;-74
2021/09/16 08:52:21;;;;;;;20.42;10.38;;;;;;;21.42;72.23;100683.88;5095643;28;20040;-75
2021/09/16 08:54:49;;;;;;;22.83;9.77;;;;;;;21.53;71.63;100690.78;5101977;28;20076;-73
2021/09/16 08:57:17;;;;;;;21.10;9.90;;;;;;;21.52;71.63;100683.44;5109685;28;20079;-76
2021/09/16 08:59:45;;;;;;;24.08;10.48;;;;;;;21.67;71.67;100698.13;5101722;28;20076;-75
2021/09/16 09:02:13;;;;;;;18.70;8.77;;;;;;;21.74;71.60;100692.69;5096506;28;20101;-75
2021/09/16 09:04:40;;;;;;;19.60;9.82;;;;;;;21.60;71.88;100695.06;5090353;28;20063;-74
2021/09/16 09:07:08;;;;;;;17.30;8.68;;;;;;;21.70;70.96;100694.59;5097336;28;20665;-74
2021/09/16 09:09:35;;;;;;;19.58;10.27;;;;;;;21.57;70.88;100681.53;5114286;28;20050;-75
2021/09/16 09:12:11;;;;;;;15.73;9.00;;;;;;;21.48;71.00;100684.50;5096263;28;20125;-74
2021/09/16 09:14:41;;;;;;;17.35;9.48;;;;;;;21.57;70.76;100692.91;5103761;28;20097;-75
2021/09/16 09:17:21;;;;;;;18.45;9.15;;;;;;;21.71;70.74;100701.97;5079804;28;20253;-74
2021/09/16 09:19:52;;;;;;;18.05;9.27;;;;;;;21.58;70.27;100686.91;5095687;28;20051;-74
2021/09/16 09:22:27;;;;;;;21.70;10.93;;;;;;;21.61;70.70;100691.06;5106981;27;20134;-74
2021/09/16 09:24:59;;;;;;;24.35;10.75;;;;;;;21.68;70.44;100694.13;5120649;27;20497;-74
2021/09/16 09:27:29;;;;;;;20.42;9.25;;;;;;;21.79;70.50;100703.88;5104286;28;20138;-74
2021/09/16 09:30:20;;;;;;;17.38;8.77;;;;;;;21.78;70.44;100699.38;5096475;28;20425;-75
2021/09/16 09:33:00;;;;;;;19.15;9.13;;;;;;;21.83;69.99;100681.25;5095126;28;20068;-74
2021/09/16 09:35:36;;;;;;;20.02;10.73;;;;;;;22.01;70.08;100702.56;5094959;28;20131;-75
2021/09/16 09:38:25;;;;;;;19.60;10.70;;;;;;;22.10;69.96;100703.28;5095261;28;20134;-74
2021/09/16 09:40:58;;;;;;;22.45;10.27;;;;;;;22.30;69.42;100706.41;5111891;28;20175;-74
2021/09/16 09:43:29;;;;;;;29.75;9.75;;;;;;;22.60;68.89;100709.81;5094680;28;20050;-74
2021/09/16 09:46:10;;;;;;;21.00;9.80;;;;;;;22.69;68.71;100721.88;5094650;28;20131;-74
2021/09/16 09:49:00;;;;;;;18.90;10.07;;;;;;;22.83;68.19;100730.88;5110575;28;20066;-74
2021/09/16 09:51:58;;;;;;;20.10;10.00;;;;;;;22.91;68.60;100707.13;5084022;28;20101;-75
2021/09/16 09:54:38;;;;;;;20.42;9.00;;;;;;;23.02;67.62;100716.03;5068824;28;20047;-74
2021/09/16 09:57:17;;;;;;;19.65;10.13;;;;;;;22.98;67.98;100709.41;5092929;28;20550;-74
2021/09/16 10:00:12;;;;;;;18.77;10.25;;;;;;;23.09;67.95;100706.88;5094650;28;20097;-74
2021/09/16 10:02:39;;;;;;;20.08;9.65;;;;;;;23.13;67.51;100719.19;5084028;28;20067;-74
2021/09/16 10:05:27;;;;;;;16.88;9.18;;;;;;;23.13;67.09;100716.34;5110192;28;20058;-74
2021/09/16 10:07:59;;;;;;;24.92;11.27;;;;;;;23.26;66.65;100703.72;5113895;28;20043;-74
2021/09/16 10:10:33;;;;;;;19.42;10.55;;;;;;;23.45;66.20;100714.41;5107317;28;20083;-74
2021/09/16 10:13:00;;;;;;;21.85;10.73;;;;;;;23.50;66.26;100705.59;5112677;27;20445;-74
2021/09/16 10:15:27;;;;;;;19.58;10.20;;;;;;;23.81;65.83;100713.41;5127123;27;20118;-74
2021/09/16 10:17:54;;;;;;;18.70;11.35;;;;;;;24.03;65.26;100702.53;5094027;27;20126;-68
2021/09/16 10:20:23;;;;;;;15.05;9.15;;;;;;;24.54;64.95;100711.16;5110129;27;20126;-71
2021/09/16 10:22:57;;;;;;;18.80;9.40;;;;;;;25.04;63.92;100707.41;5123956;27;20134;-72
2021/09/16 10:25:27;;;;;;;20.50;8.40;;;;;;;26.06;62.65;100706.19;5118219;27;20096;-70
2021/09/16 10:28:05;;;;;;;13.90;8.40;;;;;;;26.98;61.48;100700.25;5111406;27;20044;-74
2021/09/16 10:30:34;;;;;;;14.52;7.78;;;;;;;28.06;59.36;100705.16;5111517;27;20117;-72
2021/09/16 10:33:06;;;;;;;14.30;7.65;;;;;;;28.86;57.73;100708.25;5125467;27;20071;-71
2021/09/16 10:35:42;;;;;;;15.13;8.65;;;;;;;29.55;55.64;100706.53;5091735;28;20471;-72
2021/09/16 10:38:23;;;;;;;16.55;8.52;;;;;;;30.20;54.44;100709.13;5099841;28;20119;-71
2021/09/16 10:41:20;;;;;;;15.20;8.82;;;;;;;30.66;53.68;100704.56;5104450;28;20044;-70
2021/09/16 10:43:53;;;;;;;12.82;8.43;;;;;;;31.00;51.75;100707.78;5095646;28;20061;-70
2021/09/16 10:46:52;;;;;;;14.40;8.07;;;;;;;31.65;49.55;100708.34;5099160;28;20456;-70
2021/09/16 10:49:22;;;;;;;14.00;8.48;;;;;;;32.33;48.54;100705.78;5084985;27;20121;-71
2021/09/16 10:51:53;;;;;;;12.70;7.72;;;;;;;33.11;47.48;100706.25;5097330;28;20135;-71
2021/09/16 10:54:23;;;;;;;11.52;7.38;;;;;;;33.71;46.10;100707.56;5107650;28;20470;-72
2021/09/16 10:57:03;;;;;;;13.00;7.82;;;;;;;34.18;45.37;100706.84;5101899;28;20043;-71
2021/09/16 10:59:52;;;;;;;13.20;8.85;;;;;;;34.45;43.81;100706.78;5101187;28;20067;-70
2021/09/16 11:02:21;;;;;;;13.52;9.07;;;;;;;34.79;42.25;100699.97;5098658;28;20142;-68
2021/09/16 11:04:57;;;;;;;15.45;8.35;;;;;;;35.14;41.86;100705.06;5102210;28;20499;-68
2021/09/16 11:07:33;;;;;;;13.05;8.27;;;;;;;35.12;41.83;100695.19;5105711;28;20044;-68
2021/09/16 11:10:13;;;;;;;13.20;8.55;;;;;;;35.62;41.17;100690.38;5093334;28;20117;-68
2021/09/16 11:12:41;;;;;;;15.15;9.57;;;;;;;35.75;39.31;100676.78;5110034;28;20056;-69
2021/09/16 11:15:12;;;;;;;16.73;8.82;;;;;;;36.02;38.37;100683.22;5113555;28;20433;-69
2021/09/16 11:17:41;;;;;;;15.07;9.10;;;;;;;36.46;37.41;100688.72;5107690;28;20472;-68
2021/09/16 11:20:11;;;;;;;16.27;9.48;;;;;;;36.73;36.97;100680.53;5094606;28;20391;-69